createdAt,value
2023-05-10T00:01:22.437Z,98484.97
2023-05-10T00:03:49.098Z,98485.84
2023-05-10T00:06:15.834Z,98478.06
2023-05-10T00:08:42.504Z,98480.03
2023-05-10T00:11:09.136Z,98473.97
2023-05-10T00:13:35.759Z,98469.84
2023-05-10T00:16:02.424Z,98469.78
2023-05-10T00:18:29.021Z,98466.59
2023-05-10T00:20:55.588Z,98469.06
2023-05-10T00:23:22.172Z,98465.69
2023-05-10T00:25:48.870Z,98461.34
2023-05-10T00:28:16.893Z,98459.75
2023-05-10T00:30:43.445Z,98461.53
2023-05-10T00:33:10.159Z,98452.19
2023-05-10T00:35:37.080Z,98454.91
2023-05-10T00:38:03.638Z,98452.25
2023-05-10T00:40:34.180Z,98454.84
2023-05-10T00:43:02.493Z,98456.50
2023-05-10T00:45:29.206Z,98449.56
2023-05-10T00:47:57.107Z,98451.59
2023-05-10T00:50:24.425Z,98445.47
2023-05-10T00:52:51.402Z,98450.75
2023-05-10T00:55:19.165Z,98447.25
2023-05-10T00:57:46.722Z,98446.53
2023-05-10T01:00:14.153Z,98443.16
2023-05-10T01:02:41.748Z,98444.09
2023-05-10T01:05:08.659Z,98444.09
2023-05-10T01:07:35.472Z,98440.63
2023-05-10T01:10:02.347Z,98433.72
2023-05-10T01:12:29.015Z,98434.44
2023-05-10T01:14:56.091Z,98437.88
2023-05-10T01:17:23.608Z,98428.50
2023-05-10T01:19:50.826Z,98425.81
2023-05-10T01:22:45.599Z,98435.28
2023-05-10T01:25:46.146Z,98431.91
2023-05-10T01:28:27.241Z,98423.34
2023-05-10T01:31:10.706Z,98431.13
2023-05-10T01:33:47.659Z,98419.13
2023-05-10T01:36:30.412Z,98426.84
2023-05-10T01:39:00.358Z,98422.50
2023-05-10T01:41:53.146Z,98413.94
2023-05-10T01:44:40.780Z,98413.09
2023-05-10T01:47:12.454Z,98415.63
2023-05-10T01:49:48.456Z,98409.41
2023-05-10T01:52:18.484Z,98413.09
2023-05-10T01:54:54.375Z,98411.41
2023-05-10T01:57:23.289Z,98399.09
2023-05-10T01:59:51.816Z,98404.41
2023-05-10T02:02:21.132Z,98406.09
2023-05-10T02:04:50.552Z,98398.50
2023-05-10T02:07:19.119Z,98400.09
2023-05-10T02:09:50.124Z,98397.00
2023-05-10T02:12:18.286Z,98389.22
2023-05-10T02:14:46.306Z,98385.31
2023-05-10T02:17:13.876Z,98388.56
2023-05-10T02:19:42.778Z,98377.97
2023-05-10T02:22:10.727Z,98377.97
2023-05-10T02:24:38.544Z,98372.13
2023-05-10T02:27:06.269Z,98369.94
2023-05-10T02:29:34.559Z,98368.72
2023-05-10T02:32:02.734Z,98379.34
2023-05-10T02:34:30.936Z,98365.59
2023-05-10T02:36:58.546Z,98357.81
2023-05-10T02:39:29.636Z,98362.88
2023-05-10T02:41:58.557Z,98360.28
2023-05-10T02:44:28.188Z,98369.75
2023-05-10T02:46:57.093Z,98375.59
2023-05-10T02:49:23.749Z,98366.34
2023-05-10T02:51:58.265Z,98372.19
2023-05-10T02:54:30.855Z,98380.25
2023-05-10T02:57:04.584Z,98366.38
2023-05-10T02:59:32.083Z,98357.78
2023-05-10T03:01:58.863Z,98369.59
2023-05-10T03:04:25.483Z,98364.81
2023-05-10T03:06:54.382Z,98374.09
2023-05-10T03:09:22.187Z,98363.59
2023-05-10T03:12:02.733Z,98361.66
2023-05-10T03:14:51.407Z,98365.34
2023-05-10T03:17:30.395Z,98361.81
2023-05-10T03:20:05.655Z,98362.59
2023-05-10T03:22:39.471Z,98365.00
2023-05-10T03:25:09.424Z,98370.91
2023-05-10T03:27:40.076Z,98363.31
2023-05-10T03:30:13.136Z,98365.00
2023-05-10T03:32:40.194Z,98360.50
2023-05-10T03:35:10.864Z,98365.88
2023-05-10T03:37:37.449Z,98358.66
2023-05-10T03:40:04.747Z,98355.34
2023-05-10T03:42:31.633Z,98352.97
2023-05-10T03:44:58.246Z,98346.28
2023-05-10T03:47:24.967Z,98343.13
2023-05-10T03:49:51.631Z,98343.56
2023-05-10T03:52:18.238Z,98347.41
2023-05-10T03:54:44.824Z,98350.78
2023-05-10T03:57:11.510Z,98347.53
2023-05-10T03:59:38.118Z,98348.75
2023-05-10T04:02:04.738Z,98350.69
2023-05-10T04:04:35.370Z,98347.16
2023-05-10T04:07:01.958Z,98347.97
2023-05-10T04:09:28.540Z,98355.22
2023-05-10T04:11:57.448Z,98353.28
2023-05-10T04:14:27.095Z,98355.69
2023-05-10T04:16:53.827Z,98358.47
2023-05-10T04:19:20.452Z,98363.53
2023-05-10T04:21:46.987Z,98370.25
2023-05-10T04:24:15.915Z,98376.22
2023-05-10T04:26:55.486Z,98384.53
2023-05-10T04:29:23.141Z,98383.66
2023-05-10T04:31:49.993Z,98396.28
2023-05-10T04:34:16.648Z,98398.00
2023-05-10T04:36:43.230Z,98402.25
2023-05-10T04:39:12.999Z,98396.09
2023-05-10T04:41:39.783Z,98396.94
2023-05-10T04:44:06.627Z,98398.59
2023-05-10T04:46:33.838Z,98408.09
2023-05-10T04:49:00.482Z,98401.81
2023-05-10T04:51:29.367Z,98406.81
2023-05-10T04:54:05.169Z,98409.25
2023-05-10T04:56:32.881Z,98414.44
2023-05-10T04:58:59.550Z,98413.34
2023-05-10T05:01:26.197Z,98412.28
2023-05-10T05:03:54.177Z,98416.63
2023-05-10T05:06:22.173Z,98420.75
2023-05-10T05:08:50.518Z,98418.94
2023-05-10T05:11:18.154Z,98424.78
2023-05-10T05:13:44.899Z,98427.88
2023-05-10T05:16:12.538Z,98425.91
2023-05-10T05:18:39.555Z,98423.88
2023-05-10T05:21:19.909Z,98424.44
2023-05-10T05:23:47.300Z,98418.97
2023-05-10T05:26:13.944Z,98422.97
2023-05-10T05:28:40.596Z,98421.00
2023-05-10T05:31:10.274Z,98425.03
2023-05-10T05:33:37.780Z,98419.25
2023-05-10T05:36:05.954Z,98422.66
2023-05-10T05:38:32.667Z,98421.50
2023-05-10T05:40:59.280Z,98426.22
2023-05-10T05:43:30.738Z,98433.41
2023-05-10T05:45:59.145Z,98432.75
2023-05-10T05:48:26.023Z,98433.03
2023-05-10T05:50:56.608Z,98438.47
2023-05-10T05:53:24.240Z,98435.19
2023-05-10T05:55:59.100Z,98442.97
2023-05-10T05:58:29.078Z,98442.22
2023-05-10T06:00:55.700Z,98435.41
2023-05-10T06:03:22.445Z,98437.97
2023-05-10T06:05:49.440Z,98444.75
2023-05-10T06:08:16.194Z,98447.44
2023-05-10T06:10:42.861Z,98444.84
2023-05-10T06:13:09.693Z,98447.47
2023-05-10T06:15:36.505Z,98438.81
2023-05-10T06:18:03.226Z,98444.56
2023-05-10T06:20:30.142Z,98452.22
2023-05-10T06:22:56.749Z,98451.47
2023-05-10T06:25:23.360Z,98452.06
2023-05-10T06:27:52.916Z,98459.41
2023-05-10T06:30:20.488Z,98459.59
2023-05-10T06:32:47.248Z,98458.84
2023-05-10T06:35:13.961Z,98458.50
2023-05-10T06:37:40.763Z,98448.44
2023-05-10T06:40:08.187Z,98460.72
2023-05-10T06:42:34.782Z,98462.00
2023-05-10T06:45:01.332Z,98453.47
2023-05-10T06:47:28.043Z,98453.63
2023-05-10T06:49:54.795Z,98452.34
2023-05-10T06:52:21.389Z,98444.44
2023-05-10T06:54:50.673Z,98444.72
2023-05-10T06:57:31.245Z,98446.59
2023-05-10T06:59:58.885Z,98437.94
2023-05-10T07:02:28.075Z,98438.59
2023-05-10T07:04:59.507Z,98438.56
2023-05-10T07:07:27.579Z,98442.63
2023-05-10T07:09:54.374Z,98440.66
2023-05-10T07:12:21.080Z,98442.25
2023-05-10T07:14:47.720Z,98435.38
2023-05-10T07:17:14.344Z,98435.19
2023-05-10T07:19:41.037Z,98442.69
2023-05-10T07:22:10.748Z,98441.09
2023-05-10T07:24:37.513Z,98439.41
2023-05-10T07:27:04.120Z,98445.78
2023-05-10T07:29:30.923Z,98442.47
2023-05-10T07:31:58.893Z,98440.78
2023-05-10T07:34:26.352Z,98445.88
2023-05-10T07:36:56.253Z,98442.31
2023-05-10T07:39:27.498Z,98433.91
2023-05-10T07:41:59.087Z,98430.22
2023-05-10T07:44:25.698Z,98434.59
2023-05-10T07:46:52.434Z,98435.13
2023-05-10T07:49:26.208Z,98431.84
2023-05-10T07:51:54.980Z,98431.22
2023-05-10T07:54:21.679Z,98425.66
2023-05-10T07:56:48.406Z,98429.91
2023-05-10T07:59:18.819Z,98434.03
2023-05-10T08:01:45.893Z,98433.19
2023-05-10T08:04:12.812Z,98432.69
2023-05-10T08:06:40.546Z,98434.56
2023-05-10T08:09:07.348Z,98414.97
2023-05-10T08:11:35.120Z,98431.22
2023-05-10T08:14:02.102Z,98428.91
2023-05-10T08:16:28.848Z,98441.03
2023-05-10T08:18:56.471Z,98438.56
2023-05-10T08:21:23.235Z,98436.63
2023-05-10T08:23:50.143Z,98437.06
2023-05-10T08:26:16.793Z,98434.28
2023-05-10T08:28:43.408Z,98429.59
2023-05-10T08:31:10.044Z,98433.19
2023-05-10T08:33:36.665Z,98429.00
2023-05-10T08:36:03.495Z,98424.81
2023-05-10T08:38:30.073Z,98435.78
2023-05-10T08:41:00.163Z,98428.72
2023-05-10T08:43:31.396Z,98432.16
2023-05-10T08:46:07.384Z,98438.28
2023-05-10T08:48:35.855Z,98446.50
2023-05-10T08:51:04.687Z,98432.41
2023-05-10T08:53:34.386Z,98448.25
2023-05-10T08:56:03.155Z,98444.78
2023-05-10T08:58:33.039Z,98458.09
2023-05-10T09:01:00.737Z,98453.63
2023-05-10T09:03:30.643Z,98450.59
2023-05-10T09:05:57.647Z,98446.94
2023-05-10T09:08:28.376Z,98448.50
2023-05-10T09:11:00.242Z,98432.34
2023-05-10T09:13:27.180Z,98436.09
2023-05-10T09:15:54.159Z,98439.81
2023-05-10T09:18:21.110Z,98446.88
2023-05-10T09:20:48.102Z,98438.50
2023-05-10T09:23:17.513Z,98446.06
2023-05-10T09:25:44.227Z,98437.31
2023-05-10T09:28:11.924Z,98445.75
2023-05-10T09:30:38.676Z,98444.72
2023-05-10T09:33:05.453Z,98457.38
2023-05-10T09:35:33.857Z,98450.09
2023-05-10T09:38:11.745Z,98437.31
2023-05-10T09:40:38.373Z,98435.38
2023-05-10T09:43:08.315Z,98444.75
2023-05-10T09:45:39.362Z,98443.09
2023-05-10T09:48:07.091Z,98442.50
2023-05-10T09:50:35.236Z,98436.78
2023-05-10T09:53:04.548Z,98447.66
2023-05-10T09:55:37.192Z,98434.28
2023-05-10T09:58:03.822Z,98436.31
2023-05-10T10:00:38.940Z,98429.88
2023-05-10T10:03:06.525Z,98438.00
2023-05-10T10:05:35.989Z,98431.75
2023-05-10T10:08:06.574Z,98436.22
2023-05-10T10:10:39.808Z,98429.25
2023-05-10T10:13:06.595Z,98435.97
2023-05-10T10:15:35.019Z,98432.84
2023-05-10T10:18:02.557Z,98433.66
2023-05-10T10:20:29.453Z,98425.69
2023-05-10T10:22:56.120Z,98415.28
2023-05-10T10:25:23.406Z,98415.53
2023-05-10T10:27:52.783Z,98425.94
2023-05-10T10:31:03.765Z,98420.22
2023-05-10T10:33:51.949Z,98418.28
2023-05-10T10:36:21.439Z,98404.41
2023-05-10T10:38:47.935Z,98410.44
2023-05-10T10:41:37.027Z,98423.94
2023-05-10T10:44:26.588Z,98410.91
2023-05-10T10:47:31.085Z,98417.03
2023-05-10T10:50:01.191Z,98403.66
2023-05-10T10:52:34.302Z,98405.56
2023-05-10T10:55:14.822Z,98407.09
2023-05-10T10:57:41.459Z,98402.53
2023-05-10T11:00:23.646Z,98406.50
2023-05-10T11:02:50.384Z,98404.09
2023-05-10T11:05:39.172Z,98404.94
2023-05-10T11:08:11.823Z,98398.72
2023-05-10T11:10:41.724Z,98397.03
2023-05-10T11:13:10.337Z,98394.25
2023-05-10T11:15:40.701Z,98395.13
2023-05-10T11:18:29.829Z,98402.88
2023-05-10T11:21:06.554Z,98395.13
2023-05-10T11:24:09.212Z,98389.00
2023-05-10T11:26:36.770Z,98394.91
2023-05-10T11:29:05.529Z,98393.38
2023-05-10T11:31:32.259Z,98392.50
2023-05-10T11:34:00.677Z,98385.56
2023-05-10T11:36:29.882Z,98383.91
2023-05-10T11:38:57.934Z,98378.38
2023-05-10T11:41:33.530Z,98380.06
2023-05-10T11:44:00.453Z,98386.41
2023-05-10T11:46:29.326Z,98385.34
2023-05-10T11:49:03.107Z,98385.34
2023-05-10T11:51:37.261Z,98375.03
2023-05-10T11:54:13.002Z,98377.78
2023-05-10T11:56:40.987Z,98383.91
2023-05-10T11:59:09.033Z,98373.38
2023-05-10T12:01:37.753Z,98376.00
2023-05-10T12:04:04.650Z,98376.97
2023-05-10T12:06:33.479Z,98371.13
2023-05-10T12:09:00.354Z,98370.28
2023-05-10T12:11:28.984Z,98375.19
2023-05-10T12:13:58.910Z,98384.19
2023-05-10T12:16:29.502Z,98375.31
2023-05-10T12:19:04.641Z,98372.94
2023-05-10T12:21:34.984Z,98364.69
2023-05-10T12:24:06.340Z,98372.72
2023-05-10T12:26:38.759Z,98371.16
2023-05-10T12:29:19.935Z,98369.47
2023-05-10T12:31:57.032Z,98372.00
2023-05-10T12:34:28.215Z,98369.81
2023-05-10T12:36:58.557Z,98369.91
2023-05-10T12:39:25.954Z,98356.06
2023-05-10T12:41:53.444Z,98379.38
2023-05-10T12:44:22.782Z,98367.41
2023-05-10T12:46:52.313Z,98369.09
2023-05-10T12:49:20.615Z,98361.09
2023-05-10T12:51:49.952Z,98360.25
2023-05-10T12:54:16.532Z,98357.00
2023-05-10T12:56:43.821Z,98355.59
2023-05-10T12:59:11.901Z,98357.16
2023-05-10T13:01:38.611Z,98353.31
2023-05-10T13:04:14.184Z,98355.72
2023-05-10T13:06:40.775Z,98350.47
2023-05-10T13:09:08.010Z,98341.00
2023-05-10T13:11:34.835Z,98335.63
2023-05-10T13:14:01.470Z,98345.19
2023-05-10T13:16:28.311Z,98346.88
2023-05-10T13:18:57.624Z,98342.09
2023-05-10T13:21:25.631Z,98338.25
2023-05-10T13:23:52.372Z,98335.63
2023-05-10T13:26:20.092Z,98337.31
2023-05-10T13:28:47.062Z,98332.88
2023-05-10T13:31:13.734Z,98327.13
2023-05-10T13:33:40.631Z,98322.72
2023-05-10T13:36:07.725Z,98326.88
2023-05-10T13:38:36.396Z,98331.31
2023-05-10T13:41:02.975Z,98326.88
2023-05-10T13:43:32.717Z,98322.72
2023-05-10T13:45:59.452Z,98316.84
2023-05-10T13:48:26.149Z,98315.78
2023-05-10T13:50:52.821Z,98312.78
2023-05-10T13:53:22.221Z,98319.72
2023-05-10T13:55:50.755Z,98314.19
2023-05-10T13:58:17.501Z,98304.28
2023-05-10T14:00:46.811Z,98308.47
2023-05-10T14:03:16.318Z,98308.47
2023-05-10T14:05:42.966Z,98298.56
2023-05-10T14:08:10.983Z,98305.50
2023-05-10T14:10:38.022Z,98300.22
2023-05-10T14:13:04.609Z,98308.84
2023-05-10T14:15:34.333Z,98301.78
2023-05-10T14:18:03.267Z,98301.66
2023-05-10T14:20:32.116Z,98299.03
2023-05-10T14:23:01.420Z,98291.34
2023-05-10T14:25:28.131Z,98293.91
2023-05-10T14:27:55.731Z,98296.63
2023-05-10T14:30:22.508Z,98299.97
2023-05-10T14:32:49.171Z,98295.31
2023-05-10T14:35:19.662Z,98288.50
2023-05-10T14:37:47.966Z,98289.44
2023-05-10T14:40:16.279Z,98288.50
2023-05-10T14:42:43.541Z,98291.13
2023-05-10T14:45:13.192Z,98291.13
2023-05-10T14:47:40.914Z,98291.34
2023-05-10T14:50:08.093Z,98290.19
2023-05-10T14:52:34.683Z,98292.81
2023-05-10T14:55:02.300Z,98293.88
2023-05-10T14:57:30.677Z,98287.66
2023-05-10T14:59:58.081Z,98298.31
2023-05-10T15:02:25.226Z,98293.16
2023-05-10T15:04:54.902Z,98295.91
2023-05-10T15:07:21.899Z,98297.38
2023-05-10T15:09:48.531Z,98296.66
2023-05-10T15:12:15.105Z,98296.06
2023-05-10T15:14:41.712Z,98297.97
2023-05-10T15:17:08.831Z,98288.53
2023-05-10T15:19:35.441Z,98293.94
2023-05-10T15:22:02.101Z,98294.88
2023-05-10T15:24:30.922Z,98298.84
2023-05-10T15:26:57.469Z,98294.75
2023-05-10T15:29:24.118Z,98296.53
2023-05-10T15:31:52.096Z,98298.81
2023-05-10T15:34:21.732Z,98292.84
2023-05-10T15:36:48.353Z,98294.06
2023-05-10T15:39:14.967Z,98296.81
2023-05-10T15:41:43.121Z,98302.19
2023-05-10T15:44:09.677Z,98301.09
2023-05-10T15:46:39.295Z,98301.00
2023-05-10T15:49:06.824Z,98298.69
2023-05-10T15:51:36.847Z,98298.22
2023-05-10T15:54:07.613Z,98292.44
2023-05-10T15:56:35.377Z,98295.91
2023-05-10T15:59:02.183Z,98301.41
2023-05-10T16:01:29.219Z,98289.31
2023-05-10T16:03:55.972Z,98295.78
2023-05-10T16:06:22.615Z,98298.72
2023-05-10T16:08:49.292Z,98288.69
2023-05-10T16:11:16.068Z,98297.75
2023-05-10T16:13:42.719Z,98292.97
2023-05-10T16:16:09.506Z,98295.81
2023-05-10T16:18:36.424Z,98296.38
2023-05-10T16:21:03.382Z,98295.88
2023-05-10T16:23:30.752Z,98293.47
2023-05-10T16:25:57.353Z,98298.34
2023-05-10T16:28:23.967Z,98307.41
2023-05-10T16:30:51.347Z,98300.69
2023-05-10T16:33:17.967Z,98298.41
2023-05-10T16:35:44.607Z,98298.53
2023-05-10T16:38:11.431Z,98303.25
2023-05-10T16:40:38.176Z,98300.84
2023-05-10T16:43:04.796Z,98305.38
2023-05-10T16:45:32.745Z,98303.91
2023-05-10T16:48:02.381Z,98303.09
2023-05-10T16:50:29.000Z,98304.97
2023-05-10T16:52:55.601Z,98301.97
2023-05-10T16:55:24.777Z,98306.47
2023-05-10T16:57:52.730Z,98312.69
2023-05-10T17:00:20.965Z,98306.41
2023-05-10T17:02:47.719Z,98316.56
2023-05-10T17:05:14.555Z,98319.31
2023-05-10T17:07:41.326Z,98314.28
2023-05-10T17:10:08.434Z,98321.63
2023-05-10T17:12:35.205Z,98322.94
2023-05-10T17:15:01.954Z,98324.28
2023-05-10T17:17:28.804Z,98318.41
2023-05-10T17:19:55.944Z,98327.44
2023-05-10T17:22:22.557Z,98330.69
2023-05-10T17:24:51.438Z,98332.81
2023-05-10T17:27:18.385Z,98336.75
2023-05-10T17:29:45.081Z,98335.28
2023-05-10T17:32:11.693Z,98340.94
2023-05-10T17:34:39.000Z,98339.16
2023-05-10T17:37:05.638Z,98335.47
2023-05-10T17:39:32.277Z,98341.66
2023-05-10T17:41:58.945Z,98342.16
2023-05-10T17:44:26.075Z,98344.25
2023-05-10T17:46:52.653Z,98350.75
2023-05-10T17:49:19.326Z,98352.63
2023-05-10T17:51:48.168Z,98357.03
2023-05-10T17:54:15.213Z,98365.72
2023-05-10T17:56:42.108Z,98359.00
2023-05-10T17:59:08.882Z,98359.31
2023-05-10T18:01:35.994Z,98361.19
2023-05-10T18:04:02.715Z,98362.94
2023-05-10T18:06:29.413Z,98363.91
2023-05-10T18:08:56.258Z,98363.25
2023-05-10T18:11:22.991Z,98369.66
2023-05-10T18:13:49.622Z,98372.34
2023-05-10T18:16:16.296Z,98373.59
2023-05-10T18:18:42.957Z,98373.16
2023-05-10T18:21:09.625Z,98373.47
2023-05-10T18:23:36.231Z,98378.03
2023-05-10T18:26:06.264Z,98378.22
2023-05-10T18:28:35.119Z,98379.53
2023-05-10T18:31:01.894Z,98387.66
2023-05-10T18:33:28.682Z,98392.16
2023-05-10T18:35:55.327Z,98378.63
2023-05-10T18:38:22.161Z,98384.97
2023-05-10T18:40:48.773Z,98382.47
2023-05-10T18:43:15.407Z,98384.44
2023-05-10T18:45:42.072Z,98393.41
2023-05-10T18:48:08.706Z,98394.72
2023-05-10T18:50:35.297Z,98402.94
2023-05-10T18:53:02.226Z,98408.25
2023-05-10T18:55:28.858Z,98409.31
2023-05-10T18:57:55.525Z,98404.25
2023-05-10T19:00:22.275Z,98411.72
2023-05-10T19:02:48.999Z,98413.69
2023-05-10T19:05:16.299Z,98417.50
2023-05-10T19:07:44.022Z,98425.53
2023-05-10T19:10:12.750Z,98421.22
2023-05-10T19:12:41.378Z,98424.13
2023-05-10T19:15:08.893Z,98416.38
2023-05-10T19:17:36.917Z,98417.31
2023-05-10T19:20:05.884Z,98428.69
2023-05-10T19:22:45.548Z,98421.78
2023-05-10T19:25:21.074Z,98429.44
2023-05-10T19:27:47.813Z,98424.19
2023-05-10T19:30:14.447Z,98429.44
2023-05-10T19:32:44.220Z,98438.38
2023-05-10T19:35:12.721Z,98427.34
2023-05-10T19:37:39.325Z,98429.09
2023-05-10T19:40:06.820Z,98430.09
2023-05-10T19:42:33.590Z,98431.19
2023-05-10T19:45:00.269Z,98420.94
2023-05-10T19:47:26.995Z,98427.28
2023-05-10T19:49:54.125Z,98429.31
2023-05-10T19:52:20.848Z,98426.63
2023-05-10T19:54:47.551Z,98428.38
2023-05-10T19:57:14.212Z,98435.47
2023-05-10T19:59:40.887Z,98433.78
2023-05-10T20:02:09.506Z,98430.31
2023-05-10T20:04:36.197Z,98439.19
2023-05-10T20:07:02.933Z,98437.75
2023-05-10T20:09:29.509Z,98435.25
2023-05-10T20:11:56.109Z,98437.09
2023-05-10T20:14:22.672Z,98440.72
2023-05-10T20:16:49.281Z,98450.50
2023-05-10T20:19:15.970Z,98445.38
2023-05-10T20:21:42.858Z,98444.53
2023-05-10T20:24:09.650Z,98448.81
2023-05-10T20:26:36.262Z,98446.38
2023-05-10T20:29:02.933Z,98447.53
2023-05-10T20:31:29.515Z,98443.34
2023-05-10T20:33:56.169Z,98445.97
2023-05-10T20:36:22.826Z,98441.81
2023-05-10T20:38:49.415Z,98447.03
2023-05-10T20:41:16.133Z,98445.47
2023-05-10T20:43:42.705Z,98448.16
2023-05-10T20:46:09.333Z,98447.41
2023-05-10T20:48:36.015Z,98448.06
2023-05-10T20:51:05.294Z,98454.16
2023-05-10T20:53:31.898Z,98448.94
2023-05-10T20:55:58.595Z,98453.47
2023-05-10T20:58:25.174Z,98446.72
2023-05-10T21:00:51.787Z,98449.25
2023-05-10T21:03:18.485Z,98445.81
2023-05-10T21:05:45.137Z,98444.56
2023-05-10T21:08:11.732Z,98444.06
2023-05-10T21:10:38.346Z,98447.75
2023-05-10T21:13:05.001Z,98443.19
2023-05-10T21:15:31.613Z,98430.91
2023-05-10T21:17:58.665Z,98443.19
2023-05-10T21:20:25.557Z,98440.59
2023-05-10T21:22:52.178Z,98438.16
2023-05-10T21:25:18.892Z,98435.38
2023-05-10T21:27:45.926Z,98441.53
2023-05-10T21:30:12.849Z,98431.00
2023-05-10T21:32:39.518Z,98432.84
2023-05-10T21:35:06.691Z,98436.22
2023-05-10T21:37:33.353Z,98433.13
2023-05-10T21:40:00.826Z,98430.50
2023-05-10T21:42:27.492Z,98434.03
2023-05-10T21:44:54.387Z,98441.09
2023-05-10T21:47:20.992Z,98443.03
2023-05-10T21:49:47.923Z,98447.81
2023-05-10T21:52:17.078Z,98444.38
2023-05-10T21:54:43.752Z,98446.03
2023-05-10T21:57:10.319Z,98438.31
2023-05-10T21:59:36.873Z,98449.59
2023-05-10T22:02:03.724Z,98443.44
2023-05-10T22:04:30.968Z,98444.38
2023-05-10T22:06:57.574Z,98447.16
2023-05-10T22:09:25.448Z,98441.16
2023-05-10T22:11:52.160Z,98447.28
2023-05-10T22:14:18.714Z,98446.66
2023-05-10T22:16:45.473Z,98446.84
2023-05-10T22:19:12.138Z,98446.66
2023-05-10T22:21:38.743Z,98455.19
2023-05-10T22:24:05.492Z,98447.59
2023-05-10T22:26:32.116Z,98453.75
2023-05-10T22:28:58.708Z,98454.66
2023-05-10T22:31:25.498Z,98449.69
2023-05-10T22:33:52.189Z,98454.81
2023-05-10T22:36:18.790Z,98454.56
2023-05-10T22:38:45.922Z,98454.72
2023-05-10T22:41:12.750Z,98450.13
2023-05-10T22:43:39.515Z,98450.41
2023-05-10T22:46:06.089Z,98452.19
2023-05-10T22:48:34.738Z,98453.34
2023-05-10T22:51:01.460Z,98450.31
2023-05-10T22:53:28.047Z,98456.13
2023-05-10T22:55:54.716Z,98459.63
2023-05-10T22:58:21.409Z,98452.91
2023-05-10T23:00:47.999Z,98456.50
2023-05-10T23:03:14.771Z,98464.25
2023-05-10T23:05:41.387Z,98456.41
2023-05-10T23:08:08.106Z,98457.69
2023-05-10T23:10:34.698Z,98455.97
2023-05-10T23:13:01.296Z,98455.06
2023-05-10T23:15:27.866Z,98462.13
2023-05-10T23:17:54.467Z,98457.19
2023-05-10T23:20:21.495Z,98458.91
2023-05-10T23:22:48.405Z,98453.84
2023-05-10T23:25:15.012Z,98455.78
2023-05-10T23:27:41.597Z,98450.66
2023-05-10T23:30:08.799Z,98457.53
2023-05-10T23:32:35.898Z,98453.41
2023-05-10T23:35:02.556Z,98451.88
2023-05-10T23:37:29.296Z,98446.75
2023-05-10T23:39:55.944Z,98446.03
2023-05-10T23:42:22.658Z,98442.59
2023-05-10T23:44:50.931Z,98452.19
2023-05-10T23:47:17.518Z,98451.66
2023-05-10T23:49:44.168Z,98452.31
2023-05-10T23:52:10.826Z,98454.19
2023-05-10T23:54:37.509Z,98450.81
2023-05-10T23:57:04.287Z,98448.97
2023-05-10T23:59:31.331Z,98448.03
